createdAt,value
2022-07-31T00:00:30.899Z,17.96
2022-07-31T00:03:08.616Z,17.95
2022-07-31T00:05:38.680Z,17.94
2022-07-31T00:08:11.391Z,17.93
2022-07-31T00:10:40.397Z,17.90
2022-07-31T00:13:11.411Z,17.88
2022-07-31T00:15:40.559Z,17.86
2022-07-31T00:18:09.402Z,17.84
2022-07-31T00:20:38.222Z,17.83
2022-07-31T00:23:07.433Z,17.82
2022-07-31T00:25:36.475Z,17.79
2022-07-31T00:28:07.299Z,17.75
2022-07-31T00:30:36.225Z,17.67
2022-07-31T00:33:05.901Z,17.60
2022-07-31T00:35:34.703Z,17.55
2022-07-31T00:40:52.664Z,17.49
2022-07-31T00:43:21.860Z,17.44
2022-07-31T00:45:58.548Z,17.40
2022-07-31T00:48:28.119Z,17.37
2022-07-31T00:50:57.148Z,17.35
2022-07-31T00:53:26.086Z,17.32
2022-07-31T00:55:56.741Z,17.30
2022-07-31T00:58:26.678Z,17.29
2022-07-31T01:00:58.635Z,17.27
2022-07-31T01:03:27.386Z,17.23
2022-07-31T01:05:56.313Z,17.22
2022-07-31T01:08:25.349Z,17.19
2022-07-31T01:10:58.872Z,17.16
2022-07-31T01:13:35.931Z,17.12
2022-07-31T01:16:09.476Z,17.10
2022-07-31T01:18:39.521Z,17.08
2022-07-31T01:21:11.890Z,17.07
2022-07-31T01:24:04.232Z,17.05
2022-07-31T01:26:59.042Z,16.98
2022-07-31T01:29:32.591Z,16.96
2022-07-31T01:32:06.002Z,16.96
2022-07-31T01:34:41.425Z,16.94
2022-07-31T01:37:17.525Z,16.91
2022-07-31T01:39:54.610Z,16.85
2022-07-31T01:42:26.644Z,16.78
2022-07-31T01:45:00.266Z,16.78
2022-07-31T01:47:32.617Z,16.76
2022-07-31T01:50:05.475Z,16.73
2022-07-31T01:52:36.389Z,16.74
2022-07-31T01:55:13.018Z,16.71
2022-07-31T01:57:45.094Z,16.67
2022-07-31T02:00:33.929Z,16.66
2022-07-31T02:03:13.298Z,16.65
2022-07-31T02:05:44.448Z,16.61
2022-07-31T02:08:17.188Z,16.59
2022-07-31T02:10:47.628Z,16.57
2022-07-31T02:13:17.849Z,16.55
2022-07-31T02:15:48.392Z,16.54
2022-07-31T02:18:23.001Z,16.55
2022-07-31T02:21:17.426Z,16.54
2022-07-31T02:23:46.483Z,16.49
2022-07-31T02:26:16.815Z,16.48
2022-07-31T02:28:46.628Z,16.47
2022-07-31T02:31:17.294Z,16.45
2022-07-31T02:33:49.279Z,16.42
2022-07-31T02:36:21.605Z,16.40
2022-07-31T02:38:52.310Z,16.40
2022-07-31T02:41:22.477Z,16.39
2022-07-31T02:43:52.614Z,16.37
2022-07-31T02:46:23.389Z,16.34
2022-07-31T02:48:52.696Z,16.32
2022-07-31T02:51:24.353Z,16.28
2022-07-31T02:53:55.894Z,16.26
2022-07-31T02:56:25.469Z,16.26
2022-07-31T02:58:58.091Z,16.23
2022-07-31T03:01:28.217Z,16.17
2022-07-31T03:03:57.802Z,16.11
2022-07-31T03:06:29.899Z,16.11
2022-07-31T03:08:59.066Z,16.09
2022-07-31T03:11:28.185Z,16.08
2022-07-31T03:14:02.739Z,16.07
2022-07-31T03:16:33.545Z,16.05
2022-07-31T03:19:05.098Z,16.03
2022-07-31T03:21:35.679Z,16.04
2022-07-31T03:24:06.449Z,16.04
2022-07-31T03:26:37.274Z,16.01
2022-07-31T03:29:36.100Z,15.98
2022-07-31T03:31:55.891Z,15.97
2022-07-31T03:34:24.647Z,15.94
2022-07-31T03:36:55.012Z,15.94
2022-07-31T03:39:24.657Z,15.94
2022-07-31T03:41:56.675Z,15.93
2022-07-31T03:44:26.126Z,15.93
2022-07-31T03:46:55.239Z,15.93
2022-07-31T03:49:24.974Z,15.93
2022-07-31T03:51:54.449Z,15.93
2022-07-31T03:54:23.467Z,15.93
2022-07-31T03:57:08.186Z,15.93
2022-07-31T03:59:47.967Z,15.90
2022-07-31T04:02:19.235Z,15.88
2022-07-31T04:04:51.307Z,15.88
2022-07-31T04:07:20.706Z,15.86
2022-07-31T04:09:49.794Z,15.87
2022-07-31T04:12:19.008Z,15.87
2022-07-31T04:14:47.996Z,15.87
2022-07-31T04:17:16.878Z,15.88
2022-07-31T04:19:45.827Z,15.88
2022-07-31T04:22:14.817Z,15.87
2022-07-31T04:24:43.720Z,15.86
2022-07-31T04:27:48.322Z,15.87
2022-07-31T04:30:18.878Z,15.89
2022-07-31T04:32:48.820Z,15.88
2022-07-31T04:35:22.675Z,15.87
2022-07-31T04:37:51.631Z,15.87
2022-07-31T04:40:25.800Z,15.84
2022-07-31T04:42:55.772Z,15.84
2022-07-31T04:45:25.381Z,15.83
2022-07-31T04:47:55.173Z,15.82
2022-07-31T04:50:24.132Z,15.81
2022-07-31T04:53:00.455Z,15.83
2022-07-31T04:55:34.805Z,15.85
2022-07-31T04:58:04.329Z,15.83
2022-07-31T05:00:33.282Z,15.83
2022-07-31T05:03:02.499Z,15.82
2022-07-31T05:05:31.982Z,15.82
2022-07-31T05:08:01.687Z,15.80
2022-07-31T05:10:57.131Z,15.78
2022-07-31T05:13:26.136Z,15.74
2022-07-31T05:15:57.374Z,15.71
2022-07-31T05:18:26.363Z,15.71
2022-07-31T05:21:33.563Z,15.69
2022-07-31T05:24:33.332Z,15.66
2022-07-31T05:27:09.003Z,15.63
2022-07-31T05:29:38.490Z,15.62
2022-07-31T05:32:08.782Z,15.60
2022-07-31T05:34:39.044Z,15.59
2022-07-31T05:37:08.003Z,15.57
2022-07-31T05:39:40.654Z,15.54
2022-07-31T05:42:28.103Z,15.55
2022-07-31T05:44:59.886Z,15.53
2022-07-31T05:47:40.789Z,15.51
2022-07-31T05:50:13.805Z,15.48
2022-07-31T05:52:43.534Z,15.48
2022-07-31T05:55:32.946Z,15.47
2022-07-31T05:58:27.968Z,15.46
2022-07-31T06:00:56.893Z,15.40
2022-07-31T06:03:29.180Z,15.36
2022-07-31T06:06:03.948Z,15.36
2022-07-31T06:08:33.461Z,15.35
2022-07-31T06:11:02.680Z,15.34
2022-07-31T06:13:31.883Z,15.34
2022-07-31T06:16:14.276Z,15.32
2022-07-31T06:18:44.018Z,15.28
2022-07-31T06:23:41.433Z,15.28
2022-07-31T06:26:27.737Z,15.26
2022-07-31T06:28:56.760Z,15.26
2022-07-31T06:31:26.141Z,15.27
2022-07-31T06:33:57.954Z,15.28
2022-07-31T06:36:30.521Z,15.28
2022-07-31T06:39:00.510Z,15.27
2022-07-31T06:41:46.646Z,15.27
2022-07-31T06:44:40.432Z,15.27
2022-07-31T06:47:34.542Z,15.26
2022-07-31T06:50:11.205Z,15.25
2022-07-31T06:52:49.234Z,15.27
2022-07-31T06:55:18.178Z,15.27
2022-07-31T06:57:47.329Z,15.25
2022-07-31T07:00:20.369Z,15.24
2022-07-31T07:02:51.712Z,15.23
2022-07-31T07:05:21.062Z,15.21
2022-07-31T07:07:52.494Z,15.21
2022-07-31T07:10:21.930Z,15.20
2022-07-31T07:13:17.004Z,15.18
2022-07-31T07:15:46.004Z,15.16
2022-07-31T07:18:16.459Z,15.14
2022-07-31T07:20:54.829Z,15.15
2022-07-31T07:23:25.985Z,15.18
2022-07-31T07:26:33.817Z,15.20
2022-07-31T07:29:03.774Z,15.19
2022-07-31T07:31:32.883Z,15.21
2022-07-31T07:34:05.676Z,15.24
2022-07-31T07:36:34.798Z,15.26
2022-07-31T07:39:11.815Z,15.26
2022-07-31T07:41:41.855Z,15.29
2022-07-31T07:44:10.667Z,15.31
2022-07-31T07:46:39.665Z,15.31
2022-07-31T07:49:09.282Z,15.30
2022-07-31T07:52:10.192Z,15.27
2022-07-31T07:54:50.809Z,15.23
2022-07-31T07:57:43.479Z,15.20
2022-07-31T08:00:41.844Z,15.21
2022-07-31T08:03:49.567Z,15.20
2022-07-31T08:06:04.675Z,15.21
2022-07-31T08:08:33.947Z,15.22
2022-07-31T08:11:23.098Z,15.21
2022-07-31T08:13:59.210Z,15.21
2022-07-31T08:16:43.714Z,15.22
2022-07-31T08:19:12.721Z,15.24
2022-07-31T08:21:43.572Z,15.26
2022-07-31T08:24:12.853Z,15.27
2022-07-31T08:27:03.973Z,15.29
2022-07-31T08:29:39.916Z,15.28
2022-07-31T08:32:21.830Z,15.26
2022-07-31T08:35:10.049Z,15.24
2022-07-31T08:37:52.179Z,15.21
2022-07-31T08:40:34.931Z,15.20
2022-07-31T08:46:07.352Z,15.20
2022-07-31T08:48:42.135Z,15.18
2022-07-31T08:51:13.080Z,15.18
2022-07-31T08:54:11.792Z,15.21
2022-07-31T08:56:41.640Z,15.22
2022-07-31T08:59:10.536Z,15.22
2022-07-31T09:01:40.514Z,15.23
2022-07-31T09:04:09.367Z,15.24
2022-07-31T09:06:39.223Z,15.27
2022-07-31T09:09:08.083Z,15.31
2022-07-31T09:11:47.154Z,15.33
2022-07-31T09:14:49.145Z,15.33
2022-07-31T09:17:18.101Z,15.33
2022-07-31T09:19:53.556Z,15.36
2022-07-31T09:22:31.073Z,15.36
2022-07-31T09:25:11.781Z,15.37
2022-07-31T09:27:40.952Z,15.36
2022-07-31T09:30:11.857Z,15.36
2022-07-31T09:33:17.399Z,15.36
2022-07-31T09:36:10.347Z,15.37
2022-07-31T09:38:41.794Z,15.38
2022-07-31T09:42:00.831Z,15.42
2022-07-31T09:44:51.533Z,15.42
2022-07-31T09:47:26.247Z,15.40
2022-07-31T09:49:58.139Z,15.39
2022-07-31T09:52:28.795Z,15.42
2022-07-31T09:55:14.256Z,15.41
2022-07-31T10:24:07.486Z,15.53
2022-07-31T10:26:59.266Z,15.53
2022-07-31T10:29:27.487Z,15.56
2022-07-31T10:32:03.122Z,15.57
2022-07-31T10:34:34.938Z,15.59
2022-07-31T10:37:32.092Z,15.62
2022-07-31T10:40:27.210Z,15.66
2022-07-31T10:43:27.293Z,15.67
2022-07-31T10:46:30.323Z,15.71
2022-07-31T10:49:18.058Z,15.75
2022-07-31T10:52:32.597Z,15.79
2022-07-31T10:55:31.811Z,15.82
2022-07-31T10:58:30.492Z,15.85
2022-07-31T11:01:09.736Z,15.86
2022-07-31T11:03:59.307Z,15.87
2022-07-31T11:06:42.976Z,15.91
2022-07-31T11:09:45.459Z,15.94
2022-07-31T11:13:04.484Z,15.96
2022-07-31T11:15:50.011Z,15.93
2022-07-31T11:18:37.647Z,15.92
2022-07-31T11:21:29.127Z,15.91
2022-07-31T11:24:04.098Z,15.95
2022-07-31T11:26:41.343Z,15.94
2022-07-31T11:29:59.507Z,15.94
2022-07-31T11:32:14.570Z,15.98
2022-07-31T11:34:52.834Z,15.99
2022-07-31T11:37:23.557Z,15.98
2022-07-31T11:39:53.978Z,15.97
2022-07-31T11:42:27.299Z,15.98
2022-07-31T11:45:12.363Z,16.01
2022-07-31T11:48:10.777Z,16.01
2022-07-31T11:50:40.547Z,16.02
2022-07-31T11:53:11.091Z,16.04
2022-07-31T11:55:48.515Z,16.07
2022-07-31T11:58:19.221Z,16.07
2022-07-31T12:00:53.258Z,16.11
2022-07-31T12:03:25.971Z,16.13
2022-07-31T12:05:55.778Z,16.14
2022-07-31T12:08:26.775Z,16.12
2022-07-31T12:10:57.435Z,16.11
2022-07-31T12:13:27.208Z,16.11
2022-07-31T12:15:59.439Z,16.13
2022-07-31T12:18:30.904Z,16.15
2022-07-31T12:21:02.607Z,16.17
2022-07-31T12:23:42.406Z,16.15
2022-07-31T12:26:21.199Z,16.19
2022-07-31T12:28:58.881Z,16.20
2022-07-31T12:31:28.295Z,16.22
2022-07-31T12:33:57.248Z,16.21
2022-07-31T12:36:27.095Z,16.21
2022-07-31T12:39:11.593Z,16.20
2022-07-31T12:41:43.414Z,16.20
2022-07-31T12:44:14.643Z,16.20
2022-07-31T12:46:44.111Z,16.22
2022-07-31T12:49:13.537Z,16.22
2022-07-31T12:51:44.978Z,16.23
2022-07-31T12:54:17.092Z,16.24
2022-07-31T12:56:46.586Z,16.23
2022-07-31T12:59:15.526Z,16.24
2022-07-31T13:01:44.680Z,16.27
2022-07-31T13:04:19.314Z,16.29
2022-07-31T13:06:50.602Z,16.29
2022-07-31T13:09:20.755Z,16.28
2022-07-31T13:11:51.239Z,16.28
2022-07-31T13:14:23.481Z,16.28
2022-07-31T13:16:54.376Z,16.29
2022-07-31T13:19:23.335Z,16.30
2022-07-31T13:21:52.195Z,16.33
2022-07-31T13:24:25.800Z,16.32
2022-07-31T13:26:58.176Z,16.33
2022-07-31T13:29:30.416Z,16.33
2022-07-31T13:31:59.562Z,16.32
2022-07-31T13:34:28.528Z,16.31
2022-07-31T13:36:57.843Z,16.27
2022-07-31T13:39:26.777Z,16.25
2022-07-31T13:41:55.580Z,16.24
2022-07-31T13:44:24.487Z,16.22
2022-07-31T13:46:53.524Z,16.22
2022-07-31T13:49:22.422Z,16.23
2022-07-31T13:51:51.853Z,16.24
2022-07-31T13:54:23.761Z,16.24
2022-07-31T13:56:52.690Z,16.24
2022-07-31T13:59:22.153Z,16.23
2022-07-31T14:02:03.359Z,16.20
2022-07-31T14:04:38.685Z,16.18
2022-07-31T14:07:09.587Z,16.16
2022-07-31T14:09:47.121Z,16.15
2022-07-31T14:12:24.288Z,16.14
2022-07-31T14:14:53.506Z,16.17
2022-07-31T14:17:24.807Z,16.20
2022-07-31T14:19:54.789Z,16.22
2022-07-31T14:22:23.731Z,16.23
2022-07-31T14:24:52.582Z,16.22
2022-07-31T14:27:21.451Z,16.22
2022-07-31T14:29:50.424Z,16.22
2022-07-31T14:32:21.743Z,16.18
2022-07-31T14:34:50.820Z,16.16
2022-07-31T14:37:20.140Z,16.17
2022-07-31T14:39:49.132Z,16.16
2022-07-31T14:42:22.027Z,16.15
2022-07-31T14:44:54.465Z,16.16
2022-07-31T14:47:23.583Z,16.17
2022-07-31T14:50:08.924Z,16.15
2022-07-31T14:52:38.985Z,16.16
2022-07-31T14:55:09.654Z,16.16
2022-07-31T14:57:38.605Z,16.18
2022-07-31T15:00:12.299Z,16.20
2022-07-31T15:02:41.591Z,16.22
2022-07-31T15:06:38.740Z,16.25
2022-07-31T15:08:00.384Z,16.26
2022-07-31T15:10:33.079Z,16.28
2022-07-31T15:13:01.181Z,16.32
2022-07-31T15:15:33.869Z,16.28
2022-07-31T15:18:03.473Z,16.27
2022-07-31T15:20:33.621Z,16.26
2022-07-31T15:23:03.165Z,16.24
2022-07-31T15:25:32.106Z,16.23
2022-07-31T15:28:01.034Z,16.22
2022-07-31T15:30:30.064Z,16.22
2022-07-31T15:32:58.972Z,16.26
2022-07-31T15:35:28.464Z,16.28
2022-07-31T15:37:58.886Z,16.32
2022-07-31T15:40:30.028Z,16.33
2022-07-31T15:43:03.093Z,16.32
2022-07-31T15:45:32.335Z,16.32
2022-07-31T15:48:01.861Z,16.33
2022-07-31T15:50:31.101Z,16.35
2022-07-31T15:53:00.222Z,16.37
2022-07-31T15:55:32.084Z,16.42
2022-07-31T15:58:01.103Z,16.45
2022-07-31T16:00:30.167Z,16.49
2022-07-31T16:02:59.906Z,16.52
2022-07-31T16:05:36.943Z,16.55
2022-07-31T16:08:30.191Z,16.59
2022-07-31T16:10:58.416Z,16.60
2022-07-31T16:13:27.569Z,16.65
2022-07-31T16:15:56.848Z,16.68
2022-07-31T16:18:25.871Z,16.71
2022-07-31T16:20:54.827Z,16.75
2022-07-31T16:23:25.096Z,16.78
2022-07-31T16:25:58.547Z,16.81
2022-07-31T16:28:27.278Z,16.82
2022-07-31T16:30:56.197Z,16.86
2022-07-31T16:33:25.098Z,16.88
2022-07-31T16:35:54.831Z,16.93
2022-07-31T16:38:23.685Z,16.94
2022-07-31T16:40:54.671Z,16.95
2022-07-31T16:43:50.928Z,16.98
2022-07-31T16:46:16.498Z,17.01
2022-07-31T16:48:45.338Z,17.04
2022-07-31T16:51:14.170Z,17.06
2022-07-31T16:54:10.483Z,17.08
2022-07-31T16:56:32.159Z,17.11
2022-07-31T16:59:04.028Z,17.12
2022-07-31T17:01:56.945Z,17.17
2022-07-31T17:04:25.923Z,17.20
2022-07-31T17:06:55.047Z,17.21
2022-07-31T17:09:24.758Z,17.23
2022-07-31T17:11:56.234Z,17.24
2022-07-31T17:14:27.120Z,17.25
2022-07-31T17:16:57.202Z,17.28
2022-07-31T17:19:42.605Z,17.30
2022-07-31T17:22:18.058Z,17.32
2022-07-31T17:24:51.658Z,17.33
2022-07-31T17:27:21.963Z,17.35
2022-07-31T17:29:51.050Z,17.37
2022-07-31T17:32:20.452Z,17.36
2022-07-31T17:34:52.423Z,17.38
2022-07-31T17:37:21.396Z,17.37
2022-07-31T17:39:54.644Z,17.37
2022-07-31T17:42:28.337Z,17.37
2022-07-31T17:44:58.252Z,17.37
2022-07-31T17:47:30.424Z,17.36
2022-07-31T17:50:02.988Z,17.35
2022-07-31T17:52:32.032Z,17.34
2022-07-31T17:55:01.279Z,17.33
2022-07-31T17:57:32.104Z,17.32
2022-07-31T18:00:02.921Z,17.31
2022-07-31T18:02:33.557Z,17.32
2022-07-31T18:05:02.642Z,17.33
2022-07-31T18:07:35.243Z,17.32
2022-07-31T18:10:08.406Z,17.34
2022-07-31T18:12:38.207Z,17.33
2022-07-31T18:15:35.806Z,17.30
2022-07-31T18:18:06.356Z,17.29
2022-07-31T18:20:35.012Z,17.29
2022-07-31T18:23:03.820Z,17.29
2022-07-31T18:25:35.618Z,17.28
2022-07-31T18:28:08.714Z,17.27
2022-07-31T18:30:40.347Z,17.26
2022-07-31T18:33:13.527Z,17.25
2022-07-31T18:35:42.884Z,17.24
2022-07-31T18:38:12.269Z,17.25
2022-07-31T18:40:42.496Z,17.22
2022-07-31T18:43:11.546Z,17.19
2022-07-31T18:45:41.514Z,17.19
2022-07-31T18:48:11.173Z,17.19
2022-07-31T18:50:59.547Z,17.20
2022-07-31T18:53:34.161Z,17.17
2022-07-31T18:56:04.485Z,17.14
2022-07-31T18:58:34.708Z,17.15
2022-07-31T19:01:08.438Z,17.14
2022-07-31T19:03:40.261Z,17.14
2022-07-31T19:06:12.187Z,17.13
2022-07-31T19:08:42.562Z,17.13
2022-07-31T19:11:13.570Z,17.11
2022-07-31T19:13:44.193Z,17.11
2022-07-31T19:16:17.867Z,17.12
2022-07-31T19:18:50.379Z,17.14
2022-07-31T19:21:42.166Z,17.11
2022-07-31T19:24:12.100Z,17.08
2022-07-31T19:26:42.818Z,17.06
2022-07-31T19:29:13.320Z,17.04
2022-07-31T19:31:44.673Z,17.02
2022-07-31T19:34:16.022Z,16.98
2022-07-31T19:36:51.527Z,16.98
2022-07-31T19:39:21.373Z,16.98
2022-07-31T19:42:11.938Z,16.98
2022-07-31T19:44:43.245Z,16.97
2022-07-31T19:47:13.023Z,16.96
2022-07-31T19:49:46.112Z,16.95
2022-07-31T19:52:19.728Z,16.96
2022-07-31T19:54:50.615Z,16.96
2022-07-31T19:57:20.389Z,16.97
2022-07-31T19:59:50.868Z,16.96
2022-07-31T20:02:25.786Z,16.98
2022-07-31T20:04:58.125Z,16.98
2022-07-31T20:07:32.742Z,16.98
2022-07-31T20:10:06.754Z,16.98
2022-07-31T20:12:36.948Z,16.93
2022-07-31T20:15:08.139Z,16.91
2022-07-31T20:17:38.376Z,16.91
2022-07-31T20:20:15.595Z,16.93
2022-07-31T20:22:47.432Z,16.93
2022-07-31T20:25:20.513Z,16.92
2022-07-31T20:27:50.762Z,16.92
2022-07-31T20:30:23.799Z,16.91
2022-07-31T20:32:54.635Z,16.93
2022-07-31T20:35:31.241Z,16.94
2022-07-31T20:38:21.346Z,16.94
2022-07-31T20:40:55.689Z,16.93
2022-07-31T20:43:27.188Z,16.95
2022-07-31T20:45:57.540Z,16.93
2022-07-31T20:48:30.762Z,16.94
2022-07-31T20:51:00.724Z,16.94
2022-07-31T20:53:30.432Z,16.94
2022-07-31T20:56:00.131Z,16.93
2022-07-31T20:58:28.997Z,16.93
2022-07-31T21:00:57.897Z,16.94
2022-07-31T21:03:26.857Z,16.94
2022-07-31T21:05:56.229Z,16.93
2022-07-31T21:08:25.423Z,16.90
2022-07-31T21:10:54.550Z,16.88
2022-07-31T21:13:25.953Z,16.85
2022-07-31T21:15:55.583Z,16.83
2022-07-31T21:18:24.538Z,16.80
2022-07-31T21:20:53.974Z,16.78
2022-07-31T21:23:24.091Z,16.77
2022-07-31T21:25:54.255Z,16.75
2022-07-31T21:28:28.632Z,16.72
2022-07-31T21:31:01.516Z,16.72
2022-07-31T21:33:31.202Z,16.71
2022-07-31T21:36:01.311Z,16.70
2022-07-31T21:38:30.846Z,16.68
2022-07-31T21:41:00.608Z,16.66
2022-07-31T21:43:33.484Z,16.62
2022-07-31T21:46:22.761Z,16.59
2022-07-31T21:48:52.990Z,16.55
2022-07-31T21:51:22.541Z,16.54
2022-07-31T21:53:55.275Z,16.50
2022-07-31T21:56:24.304Z,16.48
2022-07-31T21:58:53.168Z,16.46
2022-07-31T22:01:22.642Z,16.44
2022-07-31T22:03:51.604Z,16.42
2022-07-31T22:06:39.066Z,16.39
2022-07-31T22:09:08.259Z,16.35
2022-07-31T22:11:37.154Z,16.33
2022-07-31T22:14:06.008Z,16.29
2022-07-31T22:16:36.678Z,16.28
2022-07-31T22:19:08.932Z,16.24
2022-07-31T22:21:38.403Z,16.21
2022-07-31T22:24:10.094Z,16.20
2022-07-31T22:27:02.074Z,16.19
2022-07-31T22:29:35.881Z,16.19
2022-07-31T22:32:06.081Z,16.17
2022-07-31T22:34:37.639Z,16.16
2022-07-31T22:37:08.574Z,16.15
2022-07-31T22:39:38.572Z,16.15
2022-07-31T22:42:08.855Z,16.14
2022-07-31T22:44:40.658Z,16.12
2022-07-31T22:47:10.823Z,16.12
2022-07-31T22:49:40.340Z,16.10
2022-07-31T22:52:11.463Z,16.08
2022-07-31T22:54:40.728Z,16.05
2022-07-31T22:57:09.593Z,16.03
2022-07-31T22:59:38.997Z,16.02
2022-07-31T23:02:15.396Z,15.98
2022-07-31T23:04:44.509Z,15.94
2022-07-31T23:07:13.286Z,15.90
2022-07-31T23:09:42.423Z,15.87
2022-07-31T23:12:11.668Z,15.83
2022-07-31T23:14:40.605Z,15.80
2022-07-31T23:17:09.365Z,15.75
2022-07-31T23:19:54.067Z,15.67
2022-07-31T23:22:33.190Z,15.64
2022-07-31T23:25:04.681Z,15.64
2022-07-31T23:27:34.298Z,15.62
2022-07-31T23:30:03.890Z,15.59
2022-07-31T23:32:33.440Z,15.54
2022-07-31T23:35:02.208Z,15.46
2022-07-31T23:37:31.004Z,15.36
2022-07-31T23:40:00.457Z,15.28
2022-07-31T23:42:38.415Z,15.23
2022-07-31T23:45:11.621Z,15.22
2022-07-31T23:47:46.227Z,15.20
2022-07-31T23:50:16.370Z,15.18
2022-07-31T23:52:45.866Z,15.15
2022-07-31T23:55:14.660Z,15.08
2022-07-31T23:57:43.449Z,15.02
